createdAt,value
2019-02-09T00:00:47.208Z,8.26
2019-02-09T00:04:52.957Z,8.22
2019-02-09T00:08:59.122Z,8.28
2019-02-09T00:13:05.150Z,8.34
2019-02-09T00:17:10.838Z,8.25
2019-02-09T00:21:16.531Z,8.26
2019-02-09T00:25:24.614Z,8.01
2019-02-09T00:29:30.562Z,8.16
2019-02-09T00:33:37.289Z,8.26
2019-02-09T00:37:43.073Z,8.18
2019-02-09T00:41:48.768Z,8.16
2019-02-09T00:45:54.577Z,8.02
2019-02-09T00:50:00.316Z,7.88
2019-02-09T00:54:06.189Z,7.92
2019-02-09T00:58:11.892Z,7.92
2019-02-09T01:02:17.578Z,8.04
2019-02-09T01:06:23.269Z,7.94
2019-02-09T01:10:31.671Z,8.02
2019-02-09T01:14:37.399Z,8.13
2019-02-09T01:18:43.099Z,7.83
2019-02-09T01:22:49.024Z,7.62
2019-02-09T01:26:54.711Z,7.61
2019-02-09T01:31:00.475Z,7.61
2019-02-09T01:35:10.950Z,7.52
2019-02-09T01:39:16.623Z,7.48
2019-02-09T01:43:22.341Z,7.42
2019-02-09T01:47:28.046Z,7.36
2019-02-09T01:51:33.995Z,7.08
2019-02-09T01:55:39.735Z,7.16
2019-02-09T01:59:45.420Z,7.18
2019-02-09T02:03:51.214Z,7.29
2019-02-09T02:07:57.139Z,7.41
2019-02-09T02:12:02.816Z,7.58
2019-02-09T02:16:08.654Z,7.72
2019-02-09T02:20:26.845Z,7.67
2019-02-09T02:24:32.522Z,7.93
2019-02-09T02:28:38.245Z,7.87
2019-02-09T02:32:43.936Z,7.83
2019-02-09T02:36:52.115Z,8.06
2019-02-09T02:40:57.797Z,8.00
2019-02-09T02:45:03.721Z,7.96
2019-02-09T02:49:09.471Z,7.96
2019-02-09T02:53:16.859Z,8.14
2019-02-09T02:57:22.966Z,8.47
2019-02-09T03:01:30.360Z,8.56
2019-02-09T03:05:37.691Z,8.74
2019-02-09T03:09:43.337Z,8.77
2019-02-09T03:13:49.025Z,8.96
2019-02-09T03:17:55.232Z,9.13
2019-02-09T03:22:00.952Z,9.31
2019-02-09T03:26:06.743Z,9.22
2019-02-09T03:30:19.226Z,9.35
2019-02-09T03:34:24.886Z,9.49
2019-02-09T03:38:30.638Z,9.37
2019-02-09T03:42:36.333Z,9.33
2019-02-09T03:46:42.016Z,9.33
2019-02-09T03:50:47.830Z,9.34
2019-02-09T03:54:53.486Z,9.23
2019-02-09T03:58:59.298Z,9.13
2019-02-09T04:03:05.293Z,9.16
2019-02-09T04:07:10.983Z,9.12
2019-02-09T04:11:16.671Z,9.07
2019-02-09T04:15:27.398Z,8.88
2019-02-09T04:19:33.056Z,8.82
2019-02-09T04:23:38.913Z,8.73
2019-02-09T04:27:44.747Z,8.50
2019-02-09T04:31:50.412Z,8.78
2019-02-09T04:35:56.400Z,8.68
2019-02-09T04:40:02.096Z,8.79
2019-02-09T04:44:07.765Z,8.52
2019-02-09T04:48:13.455Z,8.49
2019-02-09T04:52:19.125Z,8.52
2019-02-09T04:56:24.847Z,8.46
2019-02-09T05:00:32.626Z,8.49
2019-02-09T05:04:38.367Z,8.50
2019-02-09T05:08:44.056Z,8.23
2019-02-09T05:12:49.855Z,8.32
2019-02-09T05:16:55.622Z,8.34
2019-02-09T05:21:01.301Z,8.13
2019-02-09T05:25:11.385Z,8.17
2019-02-09T05:29:17.097Z,8.03
2019-02-09T05:33:22.855Z,7.87
2019-02-09T05:37:28.530Z,7.88
2019-02-09T05:41:34.215Z,7.72
2019-02-09T05:45:40.042Z,7.73
2019-02-09T05:49:45.754Z,7.78
2019-02-09T05:53:52.685Z,7.82
2019-02-09T05:57:58.372Z,7.83
2019-02-09T06:02:04.181Z,7.77
2019-02-09T06:06:09.857Z,7.95
2019-02-09T06:10:19.564Z,7.98
2019-02-09T06:14:25.279Z,8.16
2019-02-09T06:18:30.944Z,8.22
2019-02-09T06:22:36.633Z,8.36
2019-02-09T06:26:42.327Z,8.24
2019-02-09T06:30:47.980Z,8.12
2019-02-09T06:34:53.670Z,7.99
2019-02-09T06:38:59.362Z,8.11
2019-02-09T06:43:05.310Z,8.13
2019-02-09T06:47:10.995Z,8.16
2019-02-09T06:51:16.662Z,8.10
2019-02-09T06:55:22.416Z,8.25
2019-02-09T06:59:28.104Z,8.26
2019-02-09T07:03:33.895Z,8.10
2019-02-09T07:07:39.591Z,8.15
2019-02-09T07:11:45.376Z,8.13
2019-02-09T07:15:51.068Z,8.11
2019-02-09T07:19:56.763Z,8.35
2019-02-09T07:24:02.445Z,8.59
2019-02-09T07:28:08.178Z,8.82
2019-02-09T07:37:02.261Z,8.82
2019-02-09T07:41:07.934Z,8.67
2019-02-09T07:45:20.690Z,8.84
2019-02-09T07:49:26.439Z,8.97
2019-02-09T07:53:32.205Z,8.99
2019-02-09T07:57:37.896Z,8.97
2019-02-09T08:01:43.583Z,9.05
2019-02-09T08:05:49.308Z,9.16
2019-02-09T08:09:55.082Z,9.32
2019-02-09T08:14:00.757Z,9.37
2019-02-09T08:18:09.555Z,9.38
2019-02-09T08:22:15.317Z,9.23
2019-02-09T08:26:21.077Z,9.03
2019-02-09T08:30:31.112Z,9.09
2019-02-09T08:34:36.870Z,9.25
2019-02-09T08:38:42.602Z,9.45
2019-02-09T08:42:48.398Z,9.41
2019-02-09T08:46:54.088Z,9.67
2019-02-09T08:51:04.466Z,9.74
2019-02-09T08:55:10.359Z,9.87
2019-02-09T08:59:16.058Z,10.15
2019-02-09T09:03:23.665Z,10.98
2019-02-09T09:07:29.391Z,11.96
2019-02-09T09:11:35.128Z,11.58
2019-02-09T09:15:51.939Z,11.11
2019-02-09T09:19:57.633Z,11.08
2019-02-09T09:24:03.338Z,11.88
2019-02-09T09:28:09.100Z,11.57
2019-02-09T09:32:14.795Z,11.69
2019-02-09T09:36:20.575Z,13.18
2019-02-09T09:40:36.294Z,13.72
2019-02-09T09:44:42.065Z,13.52
2019-02-09T09:48:47.765Z,13.72
2019-02-09T09:52:53.507Z,14.06
2019-02-09T09:56:59.201Z,14.19
2019-02-09T10:01:05.208Z,12.99
2019-02-09T10:05:11.431Z,12.27
2019-02-09T10:09:17.158Z,11.86
2019-02-09T10:13:22.902Z,11.60
2019-02-09T10:17:28.602Z,11.77
2019-02-09T10:21:34.334Z,12.54
2019-02-09T10:25:40.159Z,13.12
2019-02-09T10:29:45.878Z,12.80
2019-02-09T10:33:51.576Z,12.60
2019-02-09T10:37:57.955Z,12.29
2019-02-09T10:42:03.815Z,12.58
2019-02-09T10:46:09.514Z,13.01
2019-02-09T10:50:23.112Z,12.69
2019-02-09T10:54:28.803Z,12.56
2019-02-09T10:58:34.500Z,12.05
2019-02-09T11:02:40.199Z,12.34
2019-02-09T11:06:45.899Z,12.27
2019-02-09T11:10:51.825Z,12.04
2019-02-09T11:14:57.768Z,12.19
2019-02-09T11:19:03.702Z,12.00
2019-02-09T11:23:09.421Z,11.97
2019-02-09T11:27:15.110Z,12.53
2019-02-09T11:31:20.873Z,13.26
2019-02-09T11:35:26.739Z,13.84
2019-02-09T11:39:32.533Z,14.02
2019-02-09T11:43:38.290Z,13.79
2019-02-09T11:47:44.063Z,13.26
2019-02-09T11:51:50.328Z,12.77
2019-02-09T11:55:56.521Z,12.26
2019-02-09T12:00:02.215Z,12.08
2019-02-09T12:04:09.156Z,11.87
2019-02-09T12:08:14.839Z,12.86
2019-02-09T12:12:20.535Z,12.86
2019-02-09T12:16:26.335Z,13.89
2019-02-09T12:20:32.122Z,13.88
2019-02-09T12:24:37.825Z,13.84
2019-02-09T12:28:43.501Z,13.16
2019-02-09T12:32:49.347Z,13.83
2019-02-09T12:36:55.852Z,13.67
2019-02-09T12:41:03.092Z,14.15
2019-02-09T12:45:13.379Z,14.64
2019-02-09T12:49:19.070Z,15.34
2019-02-09T12:53:24.760Z,15.27
2019-02-09T12:57:30.455Z,16.03
2019-02-09T13:01:36.192Z,15.92
2019-02-09T13:05:42.012Z,15.63
2019-02-09T13:09:48.673Z,14.34
2019-02-09T13:13:54.458Z,13.58
2019-02-09T13:18:00.409Z,13.17
2019-02-09T13:22:06.641Z,12.89
2019-02-09T13:26:12.330Z,12.34
2019-02-09T13:30:27.943Z,12.19
2019-02-09T13:34:33.655Z,12.29
2019-02-09T13:38:39.373Z,12.54
2019-02-09T13:42:45.153Z,12.52
2019-02-09T13:46:50.830Z,12.56
2019-02-09T13:50:56.602Z,12.35
2019-02-09T13:55:02.302Z,12.43
2019-02-09T13:59:08.200Z,12.82
2019-02-09T14:03:13.921Z,12.44
2019-02-09T14:07:19.597Z,12.03
2019-02-09T14:11:25.278Z,12.06
2019-02-09T14:15:40.122Z,11.91
2019-02-09T14:19:45.883Z,12.06
2019-02-09T14:23:51.682Z,12.24
2019-02-09T14:27:59.428Z,11.95
2019-02-09T14:32:05.307Z,11.70
2019-02-09T14:36:11.083Z,11.56
2019-02-09T14:40:26.264Z,11.63
2019-02-09T14:44:31.961Z,11.68
2019-02-09T14:48:38.680Z,11.73
2019-02-09T14:52:44.521Z,11.78
2019-02-09T14:56:51.465Z,11.90
2019-02-09T15:00:57.277Z,11.79
2019-02-09T15:05:03.219Z,11.76
2019-02-09T15:09:09.661Z,11.71
2019-02-09T15:13:16.059Z,11.50
2019-02-09T15:17:21.753Z,11.58
2019-02-09T15:21:27.449Z,11.54
2019-02-09T15:25:33.322Z,11.48
2019-02-09T15:29:39.021Z,11.45
2019-02-09T15:33:45.262Z,11.33
2019-02-09T15:37:51.067Z,11.37
2019-02-09T15:41:56.800Z,11.17
2019-02-09T15:46:02.686Z,11.15
2019-02-09T15:50:15.228Z,11.12
2019-02-09T15:54:20.952Z,10.94
2019-02-09T15:58:26.670Z,10.98
2019-02-09T16:02:32.353Z,11.02
2019-02-09T16:06:38.037Z,11.03
2019-02-09T16:10:43.857Z,11.25
2019-02-09T16:14:49.554Z,11.28
2019-02-09T16:18:55.282Z,11.34
2019-02-09T16:23:01.046Z,11.41
2019-02-09T16:27:06.811Z,11.43
2019-02-09T16:31:12.513Z,11.17
2019-02-09T16:35:21.585Z,11.28
2019-02-09T16:39:27.354Z,11.25
2019-02-09T16:43:33.072Z,11.36
2019-02-09T16:47:38.944Z,11.30
2019-02-09T16:51:44.659Z,11.33
2019-02-09T16:55:50.344Z,11.18
2019-02-09T16:59:56.050Z,11.20
2019-02-09T17:04:01.748Z,11.27
2019-02-09T17:08:07.764Z,11.34
2019-02-09T17:12:13.511Z,11.34
2019-02-09T17:16:19.251Z,11.36
2019-02-09T17:20:25.544Z,11.30
2019-02-09T17:24:31.244Z,11.03
2019-02-09T17:28:36.938Z,11.07
2019-02-09T17:32:42.933Z,11.30
2019-02-09T17:36:48.646Z,11.12
2019-02-09T17:40:54.337Z,10.97
2019-02-09T17:45:00.005Z,10.83
2019-02-09T17:49:06.128Z,11.02
2019-02-09T17:53:12.235Z,11.17
2019-02-09T17:57:17.931Z,11.24
2019-02-09T18:01:23.614Z,11.17
2019-02-09T18:05:29.341Z,10.86
2019-02-09T18:09:36.000Z,10.61
2019-02-09T18:13:41.697Z,10.61
2019-02-09T18:17:47.794Z,10.73
2019-02-09T18:21:53.563Z,10.64
2019-02-09T18:25:59.994Z,10.55
2019-02-09T18:35:20.012Z,10.50
2019-02-09T18:39:25.774Z,10.63
2019-02-09T18:43:32.545Z,10.68
2019-02-09T18:47:38.299Z,10.73
2019-02-09T18:51:45.227Z,10.72
2019-02-09T18:55:51.016Z,10.61
2019-02-09T18:59:56.693Z,10.52
2019-02-09T19:04:02.374Z,10.47
2019-02-09T19:08:09.300Z,10.43
2019-02-09T19:12:14.993Z,10.33
2019-02-09T19:16:21.884Z,10.23
2019-02-09T19:20:34.167Z,10.07
2019-02-09T19:24:39.828Z,9.67
2019-02-09T19:28:45.526Z,9.34
2019-02-09T19:32:51.932Z,9.23
2019-02-09T19:36:57.812Z,9.43
2019-02-09T19:41:03.518Z,9.64
2019-02-09T19:45:21.397Z,9.93
2019-02-09T19:49:28.156Z,10.26
2019-02-09T19:53:33.860Z,10.29
2019-02-09T19:57:39.681Z,10.41
2019-02-09T20:01:45.391Z,10.50
2019-02-09T20:05:51.066Z,10.39
2019-02-09T20:10:17.658Z,10.48
2019-02-09T20:14:23.345Z,10.55
2019-02-09T20:18:29.042Z,10.59
2019-02-09T20:22:37.664Z,10.60
2019-02-09T20:26:43.339Z,10.37
2019-02-09T20:30:49.094Z,10.27
2019-02-09T20:34:54.945Z,10.33
2019-02-09T20:39:04.650Z,10.32
2019-02-09T20:43:13.373Z,10.27
2019-02-09T20:47:19.110Z,10.25
2019-02-09T20:51:24.811Z,10.17
2019-02-09T20:55:30.520Z,10.34
2019-02-09T20:59:36.230Z,10.40
2019-02-09T21:04:01.284Z,10.17
2019-02-09T21:08:19.290Z,10.20
2019-02-09T21:12:25.013Z,10.29
2019-02-09T21:16:30.728Z,10.41
2019-02-09T21:20:36.614Z,10.40
2019-02-09T21:24:42.282Z,10.25
2019-02-09T21:28:47.998Z,10.16
2019-02-09T21:32:54.101Z,10.01
2019-02-09T21:36:59.814Z,10.02
2019-02-09T21:41:17.258Z,10.16
2019-02-09T21:45:25.108Z,10.26
2019-02-09T21:49:32.405Z,10.39
2019-02-09T21:53:39.324Z,10.20
2019-02-09T21:57:45.106Z,10.11
2019-02-09T22:01:50.802Z,10.09
2019-02-09T22:05:56.581Z,10.07
2019-02-09T22:10:02.254Z,10.12
2019-02-09T22:14:08.028Z,10.06
2019-02-09T22:18:13.693Z,10.05
2019-02-09T22:22:19.396Z,9.81
2019-02-09T22:26:25.119Z,9.94
2019-02-09T22:30:32.159Z,9.99
2019-02-09T22:34:37.830Z,10.03
2019-02-09T22:39:03.258Z,10.11
2019-02-09T22:43:10.949Z,10.05
2019-02-09T22:47:16.653Z,10.04
2019-02-09T22:51:22.427Z,10.12
2019-02-09T22:55:31.396Z,10.11
2019-02-09T22:59:37.114Z,10.12
2019-02-09T23:03:59.062Z,10.07
2019-02-09T23:08:04.761Z,9.88
2019-02-09T23:12:10.483Z,10.01
2019-02-09T23:16:16.161Z,10.09
2019-02-09T23:20:21.866Z,10.20
2019-02-09T23:24:27.646Z,10.16
2019-02-09T23:28:33.329Z,10.22
2019-02-09T23:44:18.084Z,10.24
2019-02-09T23:48:23.744Z,10.13
2019-02-09T23:52:29.489Z,10.01
2019-02-09T23:57:17.024Z,9.97
